sensor_id;sensor_type;location;lat;lon;timestamp;P1;durP1;ratioP1;P2;durP2;ratioP2
76856;SDS011;69705;44.686;37.628;2024-01-15T00:00:05;6.72;;;2.10;;
76856;SDS011;69705;44.686;37.628;2024-01-15T00:02:36;6.85;;;1.88;;
76856;SDS011;69705;44.686;37.628;2024-01-15T00:05:04;6.90;;;1.70;;
76856;SDS011;69705;44.686;37.628;2024-01-15T00:07:31;11.20;;;2.08;;
76856;SDS011;69705;44.686;37.628;2024-01-15T00:09:57;6.28;;;2.20;;
76856;SDS011;69705;44.686;37.628;2024-01-15T00:12:24;6.03;;;1.67;;
76856;SDS011;69705;44.686;37.628;2024-01-15T00:14:51;9.43;;;2.38;;
76856;SDS011;69705;44.686;37.628;2024-01-15T00:17:18;7.33;;;1.83;;
76856;SDS011;69705;44.686;37.628;2024-01-15T00:19:45;5.97;;;1.88;;
76856;SDS011;69705;44.686;37.628;2024-01-15T00:22:12;7.10;;;1.92;;
76856;SDS011;69705;44.686;37.628;2024-01-15T00:24:39;5.25;;;1.30;;
76856;SDS011;69705;44.686;37.628;2024-01-15T00:27:06;6.55;;;1.90;;
76856;SDS011;69705;44.686;37.628;2024-01-15T00:29:33;7.37;;;1.90;;
76856;SDS011;69705;44.686;37.628;2024-01-15T00:31:59;11.85;;;2.25;;
76856;SDS011;69705;44.686;37.628;2024-01-15T00:34:26;11.02;;;2.30;;
76856;SDS011;69705;44.686;37.628;2024-01-15T00:36:53;6.53;;;1.83;;
76856;SDS011;69705;44.686;37.628;2024-01-15T00:39:20;6.78;;;1.90;;
76856;SDS011;69705;44.686;37.628;2024-01-15T00:41:47;6.43;;;1.70;;
76856;SDS011;69705;44.686;37.628;2024-01-15T00:44:14;5.65;;;1.60;;
76856;SDS011;69705;44.686;37.628;2024-01-15T00:46:42;6.90;;;1.98;;
76856;SDS011;69705;44.686;37.628;2024-01-15T00:49:11;8.75;;;2.20;;
76856;SDS011;69705;44.686;37.628;2024-01-15T00:51:56;6.28;;;1.85;;
76856;SDS011;69705;44.686;37.628;2024-01-15T00:54:23;8.60;;;1.70;;
76856;SDS011;69705;44.686;37.628;2024-01-15T00:56:50;8.65;;;1.88;;
76856;SDS011;69705;44.686;37.628;2024-01-15T00:59:17;9.85;;;1.65;;
76856;SDS011;69705;44.686;37.628;2024-01-15T01:01:46;9.18;;;1.40;;
76856;SDS011;69705;44.686;37.628;2024-01-15T01:04:13;5.05;;;1.35;;
76856;SDS011;69705;44.686;37.628;2024-01-15T01:06:40;6.13;;;1.50;;
76856;SDS011;69705;44.686;37.628;2024-01-15T01:09:07;5.38;;;1.42;;
76856;SDS011;69705;44.686;37.628;2024-01-15T01:11:34;5.00;;;1.33;;
76856;SDS011;69705;44.686;37.628;2024-01-15T01:14:01;5.65;;;1.40;;
76856;SDS011;69705;44.686;37.628;2024-01-15T01:16:28;5.47;;;1.10;;
76856;SDS011;69705;44.686;37.628;2024-01-15T01:18:55;5.20;;;1.60;;
76856;SDS011;69705;44.686;37.628;2024-01-15T01:21:22;5.07;;;1.30;;
76856;SDS011;69705;44.686;37.628;2024-01-15T01:23:49;6.50;;;1.40;;
76856;SDS011;69705;44.686;37.628;2024-01-15T01:26:16;6.07;;;1.60;;
76856;SDS011;69705;44.686;37.628;2024-01-15T01:28:44;5.65;;;1.45;;
76856;SDS011;69705;44.686;37.628;2024-01-15T01:31:11;4.57;;;1.17;;
76856;SDS011;69705;44.686;37.628;2024-01-15T01:33:38;5.25;;;1.50;;
76856;SDS011;69705;44.686;37.628;2024-01-15T01:36:09;4.63;;;1.30;;
76856;SDS011;69705;44.686;37.628;2024-01-15T01:38:36;6.15;;;1.30;;
76856;SDS011;69705;44.686;37.628;2024-01-15T01:41:03;7.00;;;1.50;;
76856;SDS011;69705;44.686;37.628;2024-01-15T01:44:08;5.47;;;1.40;;
76856;SDS011;69705;44.686;37.628;2024-01-15T01:46:35;8.18;;;1.70;;
76856;SDS011;69705;44.686;37.628;2024-01-15T01:49:07;6.90;;;1.50;;
76856;SDS011;69705;44.686;37.628;2024-01-15T01:51:35;5.75;;;1.23;;
76856;SDS011;69705;44.686;37.628;2024-01-15T01:54:04;4.72;;;1.10;;
76856;SDS011;69705;44.686;37.628;2024-01-15T01:56:31;7.10;;;1.27;;
76856;SDS011;69705;44.686;37.628;2024-01-15T02:01:44;4.57;;;1.30;;
76856;SDS011;69705;44.686;37.628;2024-01-15T02:04:11;4.95;;;1.33;;
76856;SDS011;69705;44.686;37.628;2024-01-15T02:06:38;9.73;;;1.80;;
76856;SDS011;69705;44.686;37.628;2024-01-15T02:09:05;7.00;;;1.40;;
76856;SDS011;69705;44.686;37.628;2024-01-15T02:11:32;6.65;;;1.30;;
76856;SDS011;69705;44.686;37.628;2024-01-15T02:14:17;5.13;;;1.33;;
76856;SDS011;69705;44.686;37.628;2024-01-15T02:16:44;5.53;;;1.45;;
76856;SDS011;69705;44.686;37.628;2024-01-15T02:19:17;6.85;;;1.30;;
76856;SDS011;69705;44.686;37.628;2024-01-15T02:21:44;5.17;;;1.47;;
76856;SDS011;69705;44.686;37.628;2024-01-15T02:24:11;7.13;;;1.50;;
76856;SDS011;69705;44.686;37.628;2024-01-15T02:26:56;4.80;;;1.30;;
76856;SDS011;69705;44.686;37.628;2024-01-15T02:29:22;5.50;;;1.35;;
76856;SDS011;69705;44.686;37.628;2024-01-15T02:31:49;4.47;;;1.38;;
76856;SDS011;69705;44.686;37.628;2024-01-15T02:34:15;6.57;;;1.83;;
76856;SDS011;69705;44.686;37.628;2024-01-15T02:36:43;5.82;;;1.73;;
76856;SDS011;69705;44.686;37.628;2024-01-15T02:39:10;5.68;;;1.67;;
76856;SDS011;69705;44.686;37.628;2024-01-15T02:41:55;9.52;;;2.13;;
76856;SDS011;69705;44.686;37.628;2024-01-15T02:44:23;6.38;;;1.70;;
76856;SDS011;69705;44.686;37.628;2024-01-15T02:46:50;5.30;;;1.60;;
76856;SDS011;69705;44.686;37.628;2024-01-15T02:49:17;6.15;;;1.80;;
76856;SDS011;69705;44.686;37.628;2024-01-15T02:51:44;7.40;;;1.73;;
76856;SDS011;69705;44.686;37.628;2024-01-15T02:54:11;5.70;;;1.80;;
76856;SDS011;69705;44.686;37.628;2024-01-15T02:56:37;4.30;;;1.30;;
76856;SDS011;69705;44.686;37.628;2024-01-15T02:59:04;7.50;;;1.80;;
76856;SDS011;69705;44.686;37.628;2024-01-15T03:01:31;8.35;;;2.22;;
76856;SDS011;69705;44.686;37.628;2024-01-15T03:03:58;6.53;;;1.90;;
76856;SDS011;69705;44.686;37.628;2024-01-15T03:06:24;5.78;;;1.83;;
76856;SDS011;69705;44.686;37.628;2024-01-15T03:08:51;6.38;;;2.25;;
76856;SDS011;69705;44.686;37.628;2024-01-15T03:11:18;7.53;;;2.00;;
76856;SDS011;69705;44.686;37.628;2024-01-15T03:13:45;6.63;;;2.30;;
76856;SDS011;69705;44.686;37.628;2024-01-15T03:16:12;6.22;;;2.33;;
76856;SDS011;69705;44.686;37.628;2024-01-15T03:18:38;8.00;;;2.60;;
76856;SDS011;69705;44.686;37.628;2024-01-15T03:21:05;7.75;;;2.30;;
76856;SDS011;69705;44.686;37.628;2024-01-15T03:23:32;6.80;;;2.40;;
76856;SDS011;69705;44.686;37.628;2024-01-15T03:25:58;8.95;;;2.65;;
76856;SDS011;69705;44.686;37.628;2024-01-15T03:31:10;7.57;;;2.90;;
76856;SDS011;69705;44.686;37.628;2024-01-15T03:33:38;7.07;;;2.20;;
76856;SDS011;69705;44.686;37.628;2024-01-15T03:36:05;7.73;;;2.30;;
76856;SDS011;69705;44.686;37.628;2024-01-15T03:38:31;7.95;;;2.47;;
76856;SDS011;69705;44.686;37.628;2024-01-15T03:41:16;6.43;;;2.22;;
76856;SDS011;69705;44.686;37.628;2024-01-15T03:43:43;7.53;;;2.45;;
76856;SDS011;69705;44.686;37.628;2024-01-15T03:46:10;8.65;;;2.50;;
76856;SDS011;69705;44.686;37.628;2024-01-15T03:48:36;8.90;;;2.30;;
76856;SDS011;69705;44.686;37.628;2024-01-15T03:51:03;7.78;;;2.17;;
76856;SDS011;69705;44.686;37.628;2024-01-15T03:53:30;8.02;;;2.53;;
76856;SDS011;69705;44.686;37.628;2024-01-15T03:55:56;10.10;;;2.42;;
76856;SDS011;69705;44.686;37.628;2024-01-15T03:58:23;8.10;;;2.20;;
76856;SDS011;69705;44.686;37.628;2024-01-15T04:00:50;7.10;;;2.30;;
76856;SDS011;69705;44.686;37.628;2024-01-15T04:03:17;7.95;;;2.70;;
76856;SDS011;69705;44.686;37.628;2024-01-15T04:05:44;6.13;;;2.03;;
76856;SDS011;69705;44.686;37.628;2024-01-15T04:08:11;7.97;;;2.38;;
76856;SDS011;69705;44.686;37.628;2024-01-15T04:10:37;6.85;;;2.10;;
76856;SDS011;69705;44.686;37.628;2024-01-15T04:13:04;10.87;;;2.30;;
76856;SDS011;69705;44.686;37.628;2024-01-15T04:15:30;6.60;;;2.10;;
76856;SDS011;69705;44.686;37.628;2024-01-15T04:17:57;6.25;;;1.95;;
76856;SDS011;69705;44.686;37.628;2024-01-15T04:20:24;8.38;;;2.10;;
76856;SDS011;69705;44.686;37.628;2024-01-15T04:22:50;6.03;;;1.90;;
76856;SDS011;69705;44.686;37.628;2024-01-15T04:25:18;10.10;;;2.00;;
76856;SDS011;69705;44.686;37.628;2024-01-15T04:27:44;7.22;;;1.65;;
76856;SDS011;69705;44.686;37.628;2024-01-15T04:30:29;7.65;;;1.88;;
76856;SDS011;69705;44.686;37.628;2024-01-15T04:32:56;5.65;;;1.70;;
76856;SDS011;69705;44.686;37.628;2024-01-15T04:35:23;7.85;;;2.35;;
76856;SDS011;69705;44.686;37.628;2024-01-15T04:37:50;8.73;;;2.37;;
76856;SDS011;69705;44.686;37.628;2024-01-15T04:40:16;11.27;;;2.70;;
76856;SDS011;69705;44.686;37.628;2024-01-15T04:42:43;8.32;;;2.50;;
76856;SDS011;69705;44.686;37.628;2024-01-15T04:45:28;8.35;;;2.80;;
76856;SDS011;69705;44.686;37.628;2024-01-15T04:48:13;7.60;;;2.67;;
76856;SDS011;69705;44.686;37.628;2024-01-15T04:50:40;11.10;;;2.73;;
76856;SDS011;69705;44.686;37.628;2024-01-15T04:53:06;7.90;;;2.33;;
76856;SDS011;69705;44.686;37.628;2024-01-15T04:55:33;9.20;;;2.50;;
76856;SDS011;69705;44.686;37.628;2024-01-15T04:58:00;10.30;;;3.05;;
76856;SDS011;69705;44.686;37.628;2024-01-15T05:00:26;9.60;;;3.50;;
76856;SDS011;69705;44.686;37.628;2024-01-15T05:02:53;9.43;;;3.17;;
76856;SDS011;69705;44.686;37.628;2024-01-15T05:05:19;9.25;;;3.33;;
76856;SDS011;69705;44.686;37.628;2024-01-15T05:07:46;13.20;;;3.75;;
76856;SDS011;69705;44.686;37.628;2024-01-15T05:10:13;12.43;;;3.47;;
76856;SDS011;69705;44.686;37.628;2024-01-15T05:12:39;14.82;;;3.75;;
76856;SDS011;69705;44.686;37.628;2024-01-15T05:15:06;11.80;;;3.37;;
76856;SDS011;69705;44.686;37.628;2024-01-15T05:17:33;11.90;;;3.50;;
76856;SDS011;69705;44.686;37.628;2024-01-15T05:19:59;14.32;;;3.70;;
76856;SDS011;69705;44.686;37.628;2024-01-15T05:22:26;13.38;;;4.00;;
76856;SDS011;69705;44.686;37.628;2024-01-15T05:25:11;13.10;;;4.35;;
76856;SDS011;69705;44.686;37.628;2024-01-15T05:27:37;12.20;;;3.83;;
76856;SDS011;69705;44.686;37.628;2024-01-15T05:30:04;12.55;;;3.42;;
76856;SDS011;69705;44.686;37.628;2024-01-15T05:32:50;10.38;;;3.70;;
76856;SDS011;69705;44.686;37.628;2024-01-15T05:35:17;13.13;;;4.03;;
76856;SDS011;69705;44.686;37.628;2024-01-15T05:37:44;14.38;;;3.80;;
76856;SDS011;69705;44.686;37.628;2024-01-15T05:40:12;12.97;;;4.03;;
76856;SDS011;69705;44.686;37.628;2024-01-15T05:42:39;13.45;;;3.90;;
76856;SDS011;69705;44.686;37.628;2024-01-15T05:45:06;12.60;;;3.88;;
76856;SDS011;69705;44.686;37.628;2024-01-15T05:47:33;10.88;;;3.65;;
76856;SDS011;69705;44.686;37.628;2024-01-15T05:50:00;13.95;;;3.58;;
76856;SDS011;69705;44.686;37.628;2024-01-15T05:52:28;13.17;;;4.20;;
76856;SDS011;69705;44.686;37.628;2024-01-15T05:54:55;13.10;;;3.80;;
76856;SDS011;69705;44.686;37.628;2024-01-15T05:57:25;12.50;;;3.72;;
76856;SDS011;69705;44.686;37.628;2024-01-15T05:59:52;20.58;;;8.05;;
76856;SDS011;69705;44.686;37.628;2024-01-15T06:02:19;16.33;;;5.78;;
76856;SDS011;69705;44.686;37.628;2024-01-15T06:05:04;17.10;;;4.67;;
76856;SDS011;69705;44.686;37.628;2024-01-15T06:07:31;12.57;;;3.67;;
76856;SDS011;69705;44.686;37.628;2024-01-15T06:09:58;10.82;;;3.58;;
76856;SDS011;69705;44.686;37.628;2024-01-15T06:12:24;11.60;;;3.40;;
76856;SDS011;69705;44.686;37.628;2024-01-15T06:14:52;12.68;;;3.80;;
76856;SDS011;69705;44.686;37.628;2024-01-15T06:17:18;13.17;;;3.83;;
76856;SDS011;69705;44.686;37.628;2024-01-15T06:19:45;8.63;;;2.60;;
76856;SDS011;69705;44.686;37.628;2024-01-15T06:22:11;7.90;;;1.90;;
76856;SDS011;69705;44.686;37.628;2024-01-15T06:24:38;6.40;;;1.65;;
76856;SDS011;69705;44.686;37.628;2024-01-15T06:27:05;8.25;;;2.25;;
76856;SDS011;69705;44.686;37.628;2024-01-15T06:29:31;7.53;;;2.17;;
76856;SDS011;69705;44.686;37.628;2024-01-15T06:31:58;6.95;;;2.13;;
76856;SDS011;69705;44.686;37.628;2024-01-15T06:34:25;11.23;;;2.83;;
76856;SDS011;69705;44.686;37.628;2024-01-15T06:36:54;8.50;;;2.30;;
76856;SDS011;69705;44.686;37.628;2024-01-15T06:39:20;8.13;;;2.08;;
76856;SDS011;69705;44.686;37.628;2024-01-15T06:41:47;7.43;;;2.07;;
76856;SDS011;69705;44.686;37.628;2024-01-15T06:44:14;6.55;;;2.20;;
76856;SDS011;69705;44.686;37.628;2024-01-15T06:46:42;8.40;;;2.00;;
76856;SDS011;69705;44.686;37.628;2024-01-15T06:49:28;7.97;;;2.65;;
76856;SDS011;69705;44.686;37.628;2024-01-15T06:52:14;9.43;;;2.45;;
76856;SDS011;69705;44.686;37.628;2024-01-15T06:54:40;11.80;;;3.50;;
76856;SDS011;69705;44.686;37.628;2024-01-15T06:57:07;9.10;;;3.05;;
76856;SDS011;69705;44.686;37.628;2024-01-15T06:59:34;9.93;;;3.17;;
76856;SDS011;69705;44.686;37.628;2024-01-15T07:02:03;9.43;;;2.90;;
76856;SDS011;69705;44.686;37.628;2024-01-15T07:04:30;10.95;;;4.45;;
76856;SDS011;69705;44.686;37.628;2024-01-15T07:06:56;9.17;;;3.33;;
76856;SDS011;69705;44.686;37.628;2024-01-15T07:09:41;11.02;;;3.30;;
76856;SDS011;69705;44.686;37.628;2024-01-15T07:12:08;11.35;;;3.50;;
76856;SDS011;69705;44.686;37.628;2024-01-15T07:14:34;10.07;;;3.53;;
76856;SDS011;69705;44.686;37.628;2024-01-15T07:17:01;11.13;;;3.55;;
76856;SDS011;69705;44.686;37.628;2024-01-15T07:19:28;9.60;;;3.07;;
76856;SDS011;69705;44.686;37.628;2024-01-15T07:21:54;12.38;;;3.97;;
76856;SDS011;69705;44.686;37.628;2024-01-15T07:24:21;13.85;;;4.13;;
76856;SDS011;69705;44.686;37.628;2024-01-15T07:26:48;10.85;;;3.55;;
76856;SDS011;69705;44.686;37.628;2024-01-15T07:29:33;19.58;;;4.53;;
76856;SDS011;69705;44.686;37.628;2024-01-15T07:32:02;12.10;;;3.67;;
76856;SDS011;69705;44.686;37.628;2024-01-15T07:34:29;11.15;;;4.45;;
76856;SDS011;69705;44.686;37.628;2024-01-15T07:36:57;11.27;;;3.95;;
76856;SDS011;69705;44.686;37.628;2024-01-15T07:39:24;12.27;;;4.15;;
76856;SDS011;69705;44.686;37.628;2024-01-15T07:41:51;14.85;;;4.18;;
76856;SDS011;69705;44.686;37.628;2024-01-15T07:44:19;10.07;;;3.80;;
76856;SDS011;69705;44.686;37.628;2024-01-15T07:46:46;16.73;;;4.47;;
76856;SDS011;69705;44.686;37.628;2024-01-15T07:49:13;15.68;;;5.97;;
76856;SDS011;69705;44.686;37.628;2024-01-15T07:51:40;14.40;;;4.28;;
76856;SDS011;69705;44.686;37.628;2024-01-15T07:54:06;11.02;;;3.88;;
76856;SDS011;69705;44.686;37.628;2024-01-15T07:56:33;11.47;;;4.33;;
76856;SDS011;69705;44.686;37.628;2024-01-15T07:59:00;11.80;;;3.63;;
76856;SDS011;69705;44.686;37.628;2024-01-15T08:01:26;15.60;;;4.15;;
76856;SDS011;69705;44.686;37.628;2024-01-15T08:03:53;13.77;;;4.50;;
76856;SDS011;69705;44.686;37.628;2024-01-15T08:06:21;11.90;;;3.90;;
76856;SDS011;69705;44.686;37.628;2024-01-15T08:08:47;12.63;;;4.30;;
76856;SDS011;69705;44.686;37.628;2024-01-15T08:11:14;11.95;;;4.25;;
76856;SDS011;69705;44.686;37.628;2024-01-15T08:13:40;10.23;;;3.50;;
76856;SDS011;69705;44.686;37.628;2024-01-15T08:16:07;12.88;;;4.07;;
76856;SDS011;69705;44.686;37.628;2024-01-15T08:18:33;11.68;;;4.15;;
76856;SDS011;69705;44.686;37.628;2024-01-15T08:21:00;16.10;;;4.40;;
76856;SDS011;69705;44.686;37.628;2024-01-15T08:23:27;14.98;;;3.85;;
76856;SDS011;69705;44.686;37.628;2024-01-15T08:25:57;13.43;;;3.88;;
76856;SDS011;69705;44.686;37.628;2024-01-15T08:28:24;11.55;;;3.30;;
76856;SDS011;69705;44.686;37.628;2024-01-15T08:30:50;19.27;;;4.15;;
76856;SDS011;69705;44.686;37.628;2024-01-15T08:33:17;15.73;;;4.33;;
76856;SDS011;69705;44.686;37.628;2024-01-15T08:35:44;14.90;;;4.75;;
76856;SDS011;69705;44.686;37.628;2024-01-15T08:38:12;14.85;;;4.10;;
76856;SDS011;69705;44.686;37.628;2024-01-15T08:40:38;9.48;;;3.55;;
76856;SDS011;69705;44.686;37.628;2024-01-15T08:43:05;15.35;;;4.15;;
76856;SDS011;69705;44.686;37.628;2024-01-15T08:45:32;13.67;;;4.57;;
76856;SDS011;69705;44.686;37.628;2024-01-15T08:47:59;11.20;;;3.00;;
76856;SDS011;69705;44.686;37.628;2024-01-15T08:50:27;16.05;;;4.10;;
76856;SDS011;69705;44.686;37.628;2024-01-15T08:52:54;11.13;;;3.20;;
76856;SDS011;69705;44.686;37.628;2024-01-15T08:55:21;12.82;;;4.18;;
76856;SDS011;69705;44.686;37.628;2024-01-15T08:57:48;12.83;;;4.23;;
76856;SDS011;69705;44.686;37.628;2024-01-15T09:00:34;15.82;;;3.80;;
76856;SDS011;69705;44.686;37.628;2024-01-15T09:03:01;15.90;;;6.35;;
76856;SDS011;69705;44.686;37.628;2024-01-15T09:05:28;14.02;;;3.80;;
76856;SDS011;69705;44.686;37.628;2024-01-15T09:08:13;11.63;;;4.13;;
76856;SDS011;69705;44.686;37.628;2024-01-15T09:10:40;12.77;;;4.20;;
76856;SDS011;69705;44.686;37.628;2024-01-15T09:13:07;12.30;;;4.10;;
76856;SDS011;69705;44.686;37.628;2024-01-15T09:15:34;9.82;;;3.90;;
76856;SDS011;69705;44.686;37.628;2024-01-15T09:18:00;13.75;;;3.35;;
76856;SDS011;69705;44.686;37.628;2024-01-15T09:20:28;12.73;;;3.70;;
76856;SDS011;69705;44.686;37.628;2024-01-15T09:22:55;11.60;;;3.13;;
76856;SDS011;69705;44.686;37.628;2024-01-15T09:25:22;12.20;;;3.80;;
76856;SDS011;69705;44.686;37.628;2024-01-15T09:27:48;11.52;;;3.67;;
76856;SDS011;69705;44.686;37.628;2024-01-15T09:30:15;11.93;;;3.47;;
76856;SDS011;69705;44.686;37.628;2024-01-15T09:33:00;8.00;;;2.63;;
76856;SDS011;69705;44.686;37.628;2024-01-15T09:35:27;9.87;;;3.30;;
76856;SDS011;69705;44.686;37.628;2024-01-15T09:37:59;9.70;;;3.00;;
76856;SDS011;69705;44.686;37.628;2024-01-15T09:40:27;10.23;;;3.42;;
76856;SDS011;69705;44.686;37.628;2024-01-15T09:42:59;14.55;;;3.70;;
76856;SDS011;69705;44.686;37.628;2024-01-15T09:45:27;17.98;;;3.97;;
76856;SDS011;69705;44.686;37.628;2024-01-15T09:47:55;14.23;;;3.33;;
76856;SDS011;69705;44.686;37.628;2024-01-15T09:53:27;9.88;;;3.70;;
76856;SDS011;69705;44.686;37.628;2024-01-15T09:55:54;12.63;;;3.25;;
76856;SDS011;69705;44.686;37.628;2024-01-15T10:01:08;8.23;;;2.80;;
76856;SDS011;69705;44.686;37.628;2024-01-15T10:03:37;12.45;;;3.50;;
76856;SDS011;69705;44.686;37.628;2024-01-15T10:06:05;10.45;;;3.10;;
76856;SDS011;69705;44.686;37.628;2024-01-15T10:08:36;9.18;;;2.78;;
76856;SDS011;69705;44.686;37.628;2024-01-15T10:11:03;8.85;;;3.10;;
76856;SDS011;69705;44.686;37.628;2024-01-15T10:13:30;11.40;;;3.00;;
76856;SDS011;69705;44.686;37.628;2024-01-15T10:18:42;9.23;;;2.70;;
76856;SDS011;69705;44.686;37.628;2024-01-15T10:21:28;9.00;;;2.53;;
76856;SDS011;69705;44.686;37.628;2024-01-15T10:23:57;9.73;;;3.30;;
76856;SDS011;69705;44.686;37.628;2024-01-15T10:26:27;11.20;;;2.43;;
76856;SDS011;69705;44.686;37.628;2024-01-15T10:28:53;8.13;;;2.50;;
76856;SDS011;69705;44.686;37.628;2024-01-15T10:31:20;12.40;;;3.22;;
76856;SDS011;69705;44.686;37.628;2024-01-15T10:33:48;8.07;;;2.72;;
76856;SDS011;69705;44.686;37.628;2024-01-15T10:36:16;9.27;;;2.90;;
76856;SDS011;69705;44.686;37.628;2024-01-15T10:38:44;9.23;;;3.03;;
76856;SDS011;69705;44.686;37.628;2024-01-15T10:41:11;9.07;;;2.97;;
76856;SDS011;69705;44.686;37.628;2024-01-15T10:43:38;7.68;;;2.53;;
76856;SDS011;69705;44.686;37.628;2024-01-15T10:46:07;8.90;;;2.63;;
76856;SDS011;69705;44.686;37.628;2024-01-15T10:48:34;11.55;;;2.55;;
76856;SDS011;69705;44.686;37.628;2024-01-15T10:51:02;13.57;;;2.80;;
76856;SDS011;69705;44.686;37.628;2024-01-15T10:53:40;10.23;;;3.15;;
76856;SDS011;69705;44.686;37.628;2024-01-15T10:56:08;9.95;;;2.80;;
76856;SDS011;69705;44.686;37.628;2024-01-15T10:58:37;9.45;;;2.67;;
76856;SDS011;69705;44.686;37.628;2024-01-15T11:01:06;11.68;;;2.80;;
76856;SDS011;69705;44.686;37.628;2024-01-15T11:03:33;9.20;;;2.80;;
76856;SDS011;69705;44.686;37.628;2024-01-15T11:06:00;6.38;;;2.25;;
76856;SDS011;69705;44.686;37.628;2024-01-15T11:08:27;12.13;;;2.92;;
76856;SDS011;69705;44.686;37.628;2024-01-15T11:13:40;7.97;;;2.72;;
76856;SDS011;69705;44.686;37.628;2024-01-15T11:16:10;11.27;;;3.37;;
76856;SDS011;69705;44.686;37.628;2024-01-15T11:18:48;10.88;;;3.08;;
76856;SDS011;69705;44.686;37.628;2024-01-15T11:21:29;12.30;;;3.53;;
76856;SDS011;69705;44.686;37.628;2024-01-15T11:23:58;10.35;;;3.72;;
76856;SDS011;69705;44.686;37.628;2024-01-15T11:31:56;8.70;;;3.20;;
76856;SDS011;69705;44.686;37.628;2024-01-15T11:37:19;9.43;;;2.95;;
76856;SDS011;69705;44.686;37.628;2024-01-15T11:40:04;7.97;;;2.17;;
76856;SDS011;69705;44.686;37.628;2024-01-15T11:42:36;8.83;;;2.83;;
76856;SDS011;69705;44.686;37.628;2024-01-15T11:45:04;10.40;;;2.95;;
76856;SDS011;69705;44.686;37.628;2024-01-15T11:47:47;9.68;;;3.10;;
76856;SDS011;69705;44.686;37.628;2024-01-15T11:50:48;11.27;;;2.85;;
76856;SDS011;69705;44.686;37.628;2024-01-15T11:53:17;9.73;;;3.00;;
76856;SDS011;69705;44.686;37.628;2024-01-15T11:55:52;9.50;;;2.47;;
76856;SDS011;69705;44.686;37.628;2024-01-15T11:58:24;10.43;;;3.10;;
76856;SDS011;69705;44.686;37.628;2024-01-15T12:00:51;7.65;;;2.78;;
76856;SDS011;69705;44.686;37.628;2024-01-15T12:03:22;9.93;;;2.90;;
76856;SDS011;69705;44.686;37.628;2024-01-15T12:05:49;11.60;;;3.25;;
76856;SDS011;69705;44.686;37.628;2024-01-15T12:08:36;12.10;;;2.93;;
76856;SDS011;69705;44.686;37.628;2024-01-15T12:11:06;9.68;;;2.78;;
76856;SDS011;69705;44.686;37.628;2024-01-15T12:13:35;11.15;;;2.90;;
76856;SDS011;69705;44.686;37.628;2024-01-15T12:16:02;10.93;;;3.28;;
76856;SDS011;69705;44.686;37.628;2024-01-15T12:18:31;10.32;;;3.00;;
76856;SDS011;69705;44.686;37.628;2024-01-15T12:21:16;13.20;;;2.63;;
76856;SDS011;69705;44.686;37.628;2024-01-15T12:23:45;9.68;;;2.50;;
76856;SDS011;69705;44.686;37.628;2024-01-15T12:26:14;8.40;;;2.50;;
76856;SDS011;69705;44.686;37.628;2024-01-15T12:28:41;8.77;;;2.65;;
76856;SDS011;69705;44.686;37.628;2024-01-15T12:31:08;10.20;;;2.90;;
76856;SDS011;69705;44.686;37.628;2024-01-15T12:33:34;12.33;;;2.50;;
76856;SDS011;69705;44.686;37.628;2024-01-15T12:36:01;8.73;;;2.60;;
76856;SDS011;69705;44.686;37.628;2024-01-15T12:38:30;8.63;;;2.60;;
76856;SDS011;69705;44.686;37.628;2024-01-15T12:40:57;7.80;;;2.63;;
76856;SDS011;69705;44.686;37.628;2024-01-15T12:43:24;13.05;;;2.97;;
76856;SDS011;69705;44.686;37.628;2024-01-15T12:45:52;8.80;;;2.57;;
76856;SDS011;69705;44.686;37.628;2024-01-15T12:48:19;8.15;;;2.72;;
76856;SDS011;69705;44.686;37.628;2024-01-15T12:50:46;10.20;;;3.58;;
76856;SDS011;69705;44.686;37.628;2024-01-15T12:53:14;11.10;;;2.60;;
76856;SDS011;69705;44.686;37.628;2024-01-15T12:55:41;9.93;;;2.80;;
76856;SDS011;69705;44.686;37.628;2024-01-15T12:58:08;10.40;;;2.50;;
76856;SDS011;69705;44.686;37.628;2024-01-15T13:00:35;10.15;;;2.85;;
76856;SDS011;69705;44.686;37.628;2024-01-15T13:03:02;10.20;;;2.65;;
76856;SDS011;69705;44.686;37.628;2024-01-15T13:05:31;7.30;;;2.60;;
76856;SDS011;69705;44.686;37.628;2024-01-15T13:07:59;7.43;;;2.35;;
76856;SDS011;69705;44.686;37.628;2024-01-15T13:10:26;8.80;;;2.70;;
76856;SDS011;69705;44.686;37.628;2024-01-15T13:12:57;8.75;;;2.70;;
76856;SDS011;69705;44.686;37.628;2024-01-15T13:15:24;9.52;;;2.88;;
76856;SDS011;69705;44.686;37.628;2024-01-15T13:17:50;10.95;;;3.08;;
76856;SDS011;69705;44.686;37.628;2024-01-15T13:20:18;9.45;;;3.17;;
76856;SDS011;69705;44.686;37.628;2024-01-15T13:22:44;13.00;;;2.63;;
76856;SDS011;69705;44.686;37.628;2024-01-15T13:25:12;11.73;;;3.17;;
76856;SDS011;69705;44.686;37.628;2024-01-15T13:27:39;10.95;;;2.80;;
76856;SDS011;69705;44.686;37.628;2024-01-15T13:30:07;10.68;;;3.15;;
76856;SDS011;69705;44.686;37.628;2024-01-15T13:32:35;8.32;;;2.60;;
76856;SDS011;69705;44.686;37.628;2024-01-15T13:35:02;8.63;;;2.70;;
76856;SDS011;69705;44.686;37.628;2024-01-15T13:37:32;7.93;;;2.80;;
76856;SDS011;69705;44.686;37.628;2024-01-15T13:39:58;8.80;;;2.70;;
76856;SDS011;69705;44.686;37.628;2024-01-15T13:42:25;9.70;;;2.85;;
76856;SDS011;69705;44.686;37.628;2024-01-15T13:44:53;10.73;;;2.80;;
76856;SDS011;69705;44.686;37.628;2024-01-15T13:47:20;8.53;;;2.27;;
76856;SDS011;69705;44.686;37.628;2024-01-15T13:50:06;9.55;;;2.80;;
76856;SDS011;69705;44.686;37.628;2024-01-15T13:52:34;8.57;;;2.60;;
76856;SDS011;69705;44.686;37.628;2024-01-15T13:55:01;11.45;;;3.00;;
76856;SDS011;69705;44.686;37.628;2024-01-15T13:57:28;12.27;;;3.45;;
76856;SDS011;69705;44.686;37.628;2024-01-15T13:59:54;10.37;;;3.00;;
76856;SDS011;69705;44.686;37.628;2024-01-15T14:02:21;7.35;;;2.90;;
76856;SDS011;69705;44.686;37.628;2024-01-15T14:07:33;8.50;;;2.95;;
76856;SDS011;69705;44.686;37.628;2024-01-15T14:10:00;9.63;;;2.92;;
76856;SDS011;69705;44.686;37.628;2024-01-15T14:12:26;9.87;;;2.77;;
76856;SDS011;69705;44.686;37.628;2024-01-15T14:14:53;9.80;;;3.00;;
76856;SDS011;69705;44.686;37.628;2024-01-15T14:17:19;8.68;;;2.63;;
76856;SDS011;69705;44.686;37.628;2024-01-15T14:19:46;6.97;;;2.88;;
76856;SDS011;69705;44.686;37.628;2024-01-15T14:22:13;8.18;;;2.50;;
76856;SDS011;69705;44.686;37.628;2024-01-15T14:24:39;11.97;;;2.83;;
76856;SDS011;69705;44.686;37.628;2024-01-15T14:27:06;9.82;;;3.10;;
76856;SDS011;69705;44.686;37.628;2024-01-15T14:29:33;9.50;;;3.08;;
76856;SDS011;69705;44.686;37.628;2024-01-15T14:31:59;8.70;;;2.88;;
76856;SDS011;69705;44.686;37.628;2024-01-15T14:34:27;10.13;;;3.38;;
76856;SDS011;69705;44.686;37.628;2024-01-15T14:36:55;10.70;;;3.53;;
76856;SDS011;69705;44.686;37.628;2024-01-15T14:39:22;15.98;;;3.20;;
76856;SDS011;69705;44.686;37.628;2024-01-15T14:41:50;11.30;;;2.97;;
76856;SDS011;69705;44.686;37.628;2024-01-15T14:44:17;10.70;;;2.95;;
76856;SDS011;69705;44.686;37.628;2024-01-15T14:46:44;9.52;;;3.10;;
76856;SDS011;69705;44.686;37.628;2024-01-15T14:49:12;10.20;;;3.17;;
76856;SDS011;69705;44.686;37.628;2024-01-15T14:51:39;9.63;;;2.67;;
76856;SDS011;69705;44.686;37.628;2024-01-15T14:54:06;9.27;;;2.90;;
76856;SDS011;69705;44.686;37.628;2024-01-15T14:56:33;10.52;;;3.03;;
76856;SDS011;69705;44.686;37.628;2024-01-15T15:01:45;9.73;;;2.90;;
76856;SDS011;69705;44.686;37.628;2024-01-15T15:04:12;8.95;;;3.03;;
76856;SDS011;69705;44.686;37.628;2024-01-15T15:06:39;9.38;;;2.67;;